createdAt,value
2018-11-11T00:00:18.429Z,92.27
2018-11-11T00:02:47.602Z,80.03
2018-11-11T00:05:16.547Z,89.63
2018-11-11T00:07:45.342Z,95.37
2018-11-11T00:10:14.152Z,90.73
2018-11-11T00:12:43.327Z,77.30
2018-11-11T00:15:13.882Z,80.80
2018-11-11T00:17:44.067Z,83.60
2018-11-11T00:20:13.410Z,90.33
2018-11-11T00:22:42.466Z,85.33
2018-11-11T00:25:11.385Z,83.53
2018-11-11T00:27:40.945Z,91.47
2018-11-11T00:30:15.824Z,88.03
2018-11-11T00:32:44.847Z,104.43
2018-11-11T00:35:13.746Z,87.70
2018-11-11T00:37:43.185Z,84.37
2018-11-11T00:40:14.121Z,98.37
2018-11-11T00:42:43.199Z,89.13
2018-11-11T00:45:12.765Z,85.73
2018-11-11T00:47:41.971Z,78.37
2018-11-11T00:50:12.003Z,104.13
2018-11-11T00:52:41.194Z,89.13
2018-11-11T00:55:15.913Z,78.07
2018-11-11T00:57:45.292Z,88.27
2018-11-11T01:00:15.952Z,76.67
2018-11-11T01:02:45.435Z,86.83
2018-11-11T01:05:17.715Z,84.77
2018-11-11T01:07:46.632Z,84.30
2018-11-11T01:10:16.716Z,89.63
2018-11-11T01:12:46.049Z,85.93
2018-11-11T01:15:16.063Z,83.77
2018-11-11T01:17:44.930Z,85.17
2018-11-11T01:20:14.939Z,95.00
2018-11-11T01:22:44.476Z,93.30
2018-11-11T01:25:14.363Z,90.63
2018-11-11T01:27:43.788Z,96.10
2018-11-11T01:30:13.020Z,86.00
2018-11-11T01:32:41.903Z,88.93
2018-11-11T01:35:12.973Z,87.30
2018-11-11T01:37:42.286Z,87.33
2018-11-11T01:40:11.440Z,80.80
2018-11-11T01:42:40.304Z,85.93
2018-11-11T01:45:14.751Z,91.07
2018-11-11T01:47:44.021Z,84.10
2018-11-11T01:50:13.482Z,81.63
2018-11-11T01:52:42.329Z,99.80
2018-11-11T01:55:12.002Z,80.23
2018-11-11T01:57:41.058Z,80.07
2018-11-11T02:00:15.040Z,89.23
2018-11-11T02:02:44.526Z,89.87
2018-11-11T02:05:13.766Z,93.90
2018-11-11T02:07:43.652Z,92.33
2018-11-11T02:10:12.942Z,91.33
2018-11-11T02:12:43.217Z,88.17
2018-11-11T02:15:13.505Z,93.20
2018-11-11T02:17:42.419Z,81.43
2018-11-11T02:20:13.889Z,85.17
2018-11-11T02:22:43.419Z,87.33
2018-11-11T02:25:12.344Z,80.53
2018-11-11T02:27:41.370Z,81.00
2018-11-11T02:30:13.929Z,87.37
2018-11-11T02:32:43.100Z,89.23
2018-11-11T02:35:12.210Z,87.93
2018-11-11T02:37:41.537Z,86.30
2018-11-11T02:40:13.297Z,91.67
2018-11-11T02:42:42.098Z,83.17
2018-11-11T02:45:12.704Z,89.27
2018-11-11T02:47:41.531Z,90.50
2018-11-11T02:50:12.125Z,94.73
2018-11-11T02:52:42.051Z,81.37
2018-11-11T02:55:11.542Z,98.07
2018-11-11T02:57:40.966Z,95.07
2018-11-11T03:00:13.466Z,80.67
2018-11-11T03:02:43.454Z,86.30
2018-11-11T03:05:13.572Z,85.03
2018-11-11T03:07:42.458Z,99.03
2018-11-11T03:10:12.655Z,85.10
2018-11-11T03:12:42.309Z,94.93
2018-11-11T03:15:13.143Z,98.37
2018-11-11T03:17:41.944Z,91.67
2018-11-11T03:20:11.748Z,83.43
2018-11-11T03:22:40.677Z,97.77
2018-11-11T03:25:10.969Z,78.73
2018-11-11T03:27:40.120Z,90.70
2018-11-11T03:30:10.826Z,82.60
2018-11-11T03:32:40.050Z,101.47
2018-11-11T03:35:10.714Z,92.47
2018-11-11T03:37:39.671Z,77.80
2018-11-11T03:40:10.972Z,85.17
2018-11-11T03:42:39.924Z,85.50
2018-11-11T03:45:11.081Z,84.27
2018-11-11T03:47:40.005Z,79.57
2018-11-11T03:50:10.021Z,91.60
2018-11-11T03:52:39.445Z,90.20
2018-11-11T03:55:08.774Z,80.70
2018-11-11T03:57:38.471Z,90.80
2018-11-11T04:00:09.580Z,82.17
2018-11-11T04:02:38.502Z,95.50
2018-11-11T04:05:08.344Z,80.10
2018-11-11T04:07:37.273Z,89.13
2018-11-11T04:10:08.364Z,79.40
2018-11-11T04:12:37.523Z,85.33
2018-11-11T04:15:07.221Z,89.23
2018-11-11T04:17:36.411Z,89.57
2018-11-11T04:20:05.764Z,81.33
2018-11-11T04:22:34.554Z,85.27
2018-11-11T04:25:03.396Z,93.63
2018-11-11T04:27:32.408Z,81.73
2018-11-11T04:30:01.547Z,79.13
2018-11-11T04:32:30.440Z,84.50
2018-11-11T04:34:59.380Z,79.90
2018-11-11T04:37:28.259Z,86.03
2018-11-11T04:39:57.789Z,76.83
2018-11-11T04:42:26.744Z,82.20
2018-11-11T04:44:55.565Z,79.33
2018-11-11T04:47:24.738Z,77.80
2018-11-11T04:49:53.835Z,80.23
2018-11-11T04:52:22.611Z,82.27
2018-11-11T04:54:51.566Z,82.43
2018-11-11T04:57:21.063Z,82.83
2018-11-11T04:59:49.912Z,83.13
2018-11-11T05:02:19.130Z,81.17
2018-11-11T05:04:49.173Z,83.27
2018-11-11T05:07:18.013Z,85.33
2018-11-11T05:09:46.893Z,86.87
2018-11-11T05:12:16.234Z,91.73
2018-11-11T05:14:45.255Z,83.13
2018-11-11T05:17:14.463Z,77.70
2018-11-11T05:19:43.343Z,82.37
2018-11-11T05:22:12.186Z,82.87
2018-11-11T05:24:41.117Z,92.90
2018-11-11T05:27:10.336Z,81.53
2018-11-11T05:29:39.226Z,81.77
2018-11-11T05:32:08.145Z,88.87
2018-11-11T05:34:37.194Z,79.80
2018-11-11T05:37:06.787Z,85.20
2018-11-11T05:39:35.918Z,73.40
2018-11-11T05:42:05.638Z,84.03
2018-11-11T05:44:34.818Z,82.90
2018-11-11T05:47:03.727Z,78.73
2018-11-11T05:49:32.629Z,86.03
2018-11-11T05:52:01.438Z,77.77
2018-11-11T05:54:30.268Z,83.33
2018-11-11T05:56:59.078Z,78.17
2018-11-11T05:59:27.811Z,90.27
2018-11-11T06:01:56.580Z,79.10
2018-11-11T06:04:25.476Z,79.90
2018-11-11T06:06:54.637Z,83.03
2018-11-11T06:09:23.449Z,84.03
2018-11-11T06:11:52.217Z,81.43
2018-11-11T06:14:21.003Z,80.20
2018-11-11T06:16:49.873Z,85.93
2018-11-11T06:19:18.734Z,77.90
2018-11-11T06:21:48.345Z,79.10
2018-11-11T06:24:17.178Z,77.27
2018-11-11T06:26:46.114Z,77.93
2018-11-11T06:29:15.045Z,79.40
2018-11-11T06:31:44.587Z,74.73
2018-11-11T06:34:13.502Z,73.77
2018-11-11T06:36:42.270Z,75.53
2018-11-11T06:39:12.133Z,77.87
2018-11-11T06:41:41.110Z,76.23
2018-11-11T06:44:10.168Z,81.03
2018-11-11T06:46:39.095Z,79.13
2018-11-11T06:49:07.968Z,80.80
2018-11-11T06:51:36.929Z,76.63
2018-11-11T06:54:05.933Z,78.53
2018-11-11T06:56:34.774Z,73.13
2018-11-11T06:59:03.699Z,79.20
2018-11-11T07:01:32.888Z,74.63
2018-11-11T07:04:02.932Z,86.30
2018-11-11T07:06:32.465Z,78.60
2018-11-11T07:09:01.268Z,74.33
2018-11-11T07:11:30.164Z,86.07
2018-11-11T07:13:59.647Z,79.83
2018-11-11T07:16:28.542Z,80.17
2018-11-11T07:18:57.571Z,73.73
2018-11-11T07:21:26.877Z,69.47
2018-11-11T07:23:55.838Z,70.17
2018-11-11T07:26:24.773Z,78.17
2018-11-11T07:28:53.630Z,71.97
2018-11-11T07:31:22.556Z,73.07
2018-11-11T07:33:51.695Z,83.87
2018-11-11T07:36:20.592Z,70.27
2018-11-11T07:38:49.407Z,77.37
2018-11-11T07:41:18.181Z,63.37
2018-11-11T07:43:47.067Z,78.07
2018-11-11T07:46:15.965Z,81.00
2018-11-11T07:48:44.949Z,77.90
2018-11-11T07:51:14.178Z,78.77
2018-11-11T07:53:43.271Z,75.73
2018-11-11T07:56:12.581Z,77.40
2018-11-11T07:58:41.593Z,79.10
2018-11-11T08:01:10.648Z,75.40
2018-11-11T08:03:39.593Z,81.13
2018-11-11T08:06:10.117Z,80.43
2018-11-11T08:08:39.781Z,88.60
2018-11-11T08:11:20.246Z,81.07
2018-11-11T08:13:49.133Z,70.60
2018-11-11T08:16:18.056Z,77.13
2018-11-11T08:18:46.980Z,87.20
2018-11-11T08:21:15.840Z,75.10
2018-11-11T08:23:44.736Z,94.00
2018-11-11T08:26:13.726Z,69.73
2018-11-11T08:28:42.707Z,80.73
2018-11-11T08:31:11.912Z,71.53
2018-11-11T08:33:40.834Z,74.00
2018-11-11T08:36:09.991Z,71.10
2018-11-11T08:38:38.793Z,73.77
2018-11-11T08:41:07.631Z,85.73
2018-11-11T08:43:36.587Z,77.07
2018-11-11T08:46:05.566Z,75.00
2018-11-11T08:48:34.728Z,76.20
2018-11-11T08:51:03.957Z,68.30
2018-11-11T08:53:32.965Z,82.90
2018-11-11T08:56:01.994Z,74.53
2018-11-11T08:58:30.936Z,86.10
2018-11-11T09:00:59.970Z,82.23
2018-11-11T09:03:29.112Z,72.70
2018-11-11T09:05:57.954Z,73.73
2018-11-11T09:08:26.779Z,72.33
2018-11-11T09:10:55.594Z,68.50
2018-11-11T09:13:24.606Z,83.23
2018-11-11T09:15:53.618Z,89.20
2018-11-11T09:18:22.588Z,80.43
2018-11-11T09:20:51.881Z,88.53
2018-11-11T09:23:20.751Z,71.63
2018-11-11T09:25:49.712Z,72.37
2018-11-11T09:28:18.699Z,80.87
2018-11-11T09:30:47.606Z,71.40
2018-11-11T09:33:16.436Z,64.90
2018-11-11T09:35:45.345Z,70.00
2018-11-11T09:38:14.808Z,76.17
2018-11-11T09:40:43.656Z,81.13
2018-11-11T09:43:12.862Z,80.63
2018-11-11T09:45:42.043Z,82.17
2018-11-11T09:48:11.050Z,74.37
2018-11-11T09:50:40.041Z,79.73
2018-11-11T09:53:09.243Z,79.13
2018-11-11T09:55:38.170Z,78.87
2018-11-11T09:58:07.053Z,82.20
2018-11-11T10:00:35.878Z,78.40
2018-11-11T10:03:15.307Z,91.97
2018-11-11T10:05:52.935Z,79.10
2018-11-11T10:08:27.950Z,75.13
2018-11-11T10:11:02.699Z,72.27
2018-11-11T10:13:37.254Z,69.47
2018-11-11T10:16:10.183Z,79.07
2018-11-11T10:18:43.605Z,77.03
2018-11-11T10:21:18.726Z,71.90
2018-11-11T10:24:03.849Z,73.07
2018-11-11T10:26:41.042Z,68.60
2018-11-11T10:29:18.132Z,74.73
2018-11-11T10:31:52.236Z,85.67
2018-11-11T10:34:25.658Z,79.90
2018-11-11T10:36:57.514Z,75.83
2018-11-11T10:39:31.733Z,71.60
2018-11-11T10:42:04.796Z,89.90
2018-11-11T10:44:54.759Z,86.90
2018-11-11T10:47:29.566Z,73.27
2018-11-11T10:50:00.713Z,74.23
2018-11-11T10:52:29.567Z,91.10
2018-11-11T10:54:58.843Z,73.03
2018-11-11T10:57:27.740Z,74.27
2018-11-11T10:59:56.788Z,72.23
2018-11-11T11:02:30.924Z,63.73
2018-11-11T11:05:05.211Z,79.23
2018-11-11T11:07:34.291Z,78.07
2018-11-11T11:10:03.295Z,76.37
2018-11-11T11:12:32.341Z,82.93
2018-11-11T11:15:01.453Z,71.93
2018-11-11T11:17:30.514Z,74.77
2018-11-11T11:20:00.488Z,66.67
2018-11-11T11:22:29.373Z,71.00
2018-11-11T11:24:58.704Z,66.63
2018-11-11T11:27:27.776Z,75.77
2018-11-11T11:29:56.657Z,77.83
2018-11-11T11:32:26.278Z,69.63
2018-11-11T11:34:55.149Z,66.30
2018-11-11T11:37:24.183Z,66.00
2018-11-11T11:39:53.197Z,73.67
2018-11-11T11:42:22.065Z,62.73
2018-11-11T11:44:51.219Z,65.00
2018-11-11T11:47:20.255Z,64.40
2018-11-11T11:49:49.193Z,64.97
2018-11-11T11:52:18.080Z,71.80
2018-11-11T11:54:47.063Z,82.03
2018-11-11T11:57:15.979Z,83.30
2018-11-11T11:59:45.133Z,67.40
2018-11-11T12:02:14.060Z,69.20
2018-11-11T12:04:43.068Z,79.83
2018-11-11T12:07:11.997Z,70.70
2018-11-11T12:09:41.098Z,80.00
2018-11-11T12:12:09.983Z,68.60
2018-11-11T12:14:39.042Z,71.90
2018-11-11T12:17:08.026Z,77.40
2018-11-11T12:19:37.125Z,71.80
2018-11-11T12:22:06.455Z,68.83
2018-11-11T12:24:35.362Z,74.23
2018-11-11T12:27:04.279Z,70.73
2018-11-11T12:29:33.232Z,64.40
2018-11-11T12:32:02.183Z,71.83
2018-11-11T12:34:31.015Z,84.20
2018-11-11T12:37:00.007Z,76.60
2018-11-11T12:39:29.100Z,81.13
2018-11-11T12:41:58.067Z,69.73
2018-11-11T12:44:27.202Z,70.20
2018-11-11T12:46:56.173Z,77.37
2018-11-11T12:49:25.279Z,67.57
2018-11-11T12:51:54.689Z,60.30
2018-11-11T12:54:24.108Z,63.80
2018-11-11T12:56:52.981Z,69.17
2018-11-11T12:59:21.768Z,72.70
2018-11-11T13:01:50.668Z,63.57
2018-11-11T13:04:19.842Z,72.10
2018-11-11T13:06:48.696Z,65.80
2018-11-11T13:09:17.535Z,71.03
2018-11-11T13:11:46.358Z,72.00
2018-11-11T13:14:15.223Z,92.87
2018-11-11T13:16:44.199Z,65.07
2018-11-11T13:19:13.310Z,58.70
2018-11-11T13:21:42.273Z,69.37
2018-11-11T13:24:11.675Z,67.97
2018-11-11T13:26:40.807Z,64.40
2018-11-11T13:29:09.646Z,65.10
2018-11-11T13:31:38.582Z,57.73
2018-11-11T13:34:08.273Z,56.30
2018-11-11T13:36:37.201Z,63.73
2018-11-11T13:39:11.189Z,60.47
2018-11-11T13:41:40.180Z,63.50
2018-11-11T13:44:09.658Z,56.67
2018-11-11T13:46:39.191Z,61.37
2018-11-11T13:49:08.302Z,68.83
2018-11-11T13:51:38.254Z,63.03
2018-11-11T13:54:07.536Z,58.87
2018-11-11T13:56:36.396Z,62.57
2018-11-11T13:59:05.364Z,59.03
2018-11-11T14:01:34.524Z,60.03
2018-11-11T14:04:03.694Z,59.40
2018-11-11T14:06:32.587Z,65.80
2018-11-11T14:09:04.567Z,60.77
2018-11-11T14:11:33.855Z,51.23
2018-11-11T14:14:02.718Z,52.37
2018-11-11T14:16:31.517Z,52.57
2018-11-11T14:19:00.730Z,71.97
2018-11-11T14:21:29.397Z,58.03
2018-11-11T14:23:58.609Z,55.47
2018-11-11T14:26:27.677Z,47.93
2018-11-11T14:28:57.322Z,51.00
2018-11-11T14:31:26.620Z,42.27
2018-11-11T14:33:55.493Z,46.40
2018-11-11T14:36:24.518Z,47.53
2018-11-11T14:38:53.567Z,46.70
2018-11-11T14:41:22.510Z,47.33
2018-11-11T14:43:51.414Z,45.90
2018-11-11T14:46:20.464Z,48.13
2018-11-11T14:48:49.721Z,47.73
2018-11-11T14:51:18.622Z,44.63
2018-11-11T14:53:47.586Z,51.10
2018-11-11T14:56:22.723Z,43.70
2018-11-11T14:58:52.094Z,52.63
2018-11-11T15:01:20.949Z,55.00
2018-11-11T15:03:50.001Z,45.13
2018-11-11T15:06:18.957Z,45.77
2018-11-11T15:08:47.757Z,54.77
2018-11-11T15:11:16.746Z,43.80
2018-11-11T15:13:45.961Z,42.73
2018-11-11T15:16:14.781Z,42.40
2018-11-11T15:18:43.899Z,42.60
2018-11-11T15:21:12.903Z,42.03
2018-11-11T15:23:41.889Z,39.70
2018-11-11T15:26:10.942Z,41.40
2018-11-11T15:28:39.774Z,38.13
2018-11-11T15:31:08.691Z,40.80
2018-11-11T15:33:44.018Z,40.30
2018-11-11T15:36:19.501Z,35.07
2018-11-11T15:38:48.645Z,44.23
2018-11-11T15:41:17.537Z,36.63
2018-11-11T15:43:46.664Z,38.83
2018-11-11T15:46:15.627Z,36.07
2018-11-11T15:48:44.901Z,35.10
2018-11-11T15:51:13.876Z,39.07
2018-11-11T15:53:43.983Z,37.50
2018-11-11T15:56:13.184Z,42.30
2018-11-11T15:58:42.191Z,40.50
2018-11-11T16:01:11.094Z,40.30
2018-11-11T16:03:40.354Z,37.03
2018-11-11T16:06:09.641Z,42.57
2018-11-11T16:08:40.653Z,39.93
2018-11-11T16:11:09.492Z,43.50
2018-11-11T16:13:38.566Z,42.60
2018-11-11T16:16:07.828Z,35.17
2018-11-11T16:18:36.724Z,42.23
2018-11-11T16:21:05.894Z,50.77
2018-11-11T16:23:34.793Z,66.67
2018-11-11T16:26:03.894Z,47.17
2018-11-11T16:28:33.192Z,34.40
2018-11-11T16:31:02.447Z,40.53
2018-11-11T16:33:31.370Z,37.37
2018-11-11T16:36:00.262Z,40.10
2018-11-11T16:38:29.169Z,39.73
2018-11-11T16:40:58.117Z,43.20
2018-11-11T16:43:26.974Z,37.10
2018-11-11T16:46:02.331Z,39.60
2018-11-11T16:48:31.554Z,40.57
2018-11-11T16:51:00.478Z,40.87
2018-11-11T16:53:29.331Z,40.90
2018-11-11T16:55:58.229Z,40.80
2018-11-11T16:58:27.230Z,37.77
2018-11-11T17:00:56.354Z,40.60
2018-11-11T17:03:25.183Z,42.27
2018-11-11T17:05:54.399Z,38.63
2018-11-11T17:08:23.343Z,67.83
2018-11-11T17:10:52.310Z,50.23
2018-11-11T17:13:21.158Z,51.30
2018-11-11T17:15:50.023Z,41.83
2018-11-11T17:18:19.160Z,46.80
2018-11-11T17:20:48.449Z,42.00
2018-11-11T17:23:17.660Z,37.97
2018-11-11T17:25:46.615Z,45.47
2018-11-11T17:28:16.606Z,47.10
2018-11-11T17:30:46.072Z,40.23
2018-11-11T17:33:15.330Z,42.87
2018-11-11T17:35:44.717Z,64.63
2018-11-11T17:38:13.586Z,53.00
2018-11-11T17:40:42.518Z,44.10
2018-11-11T17:43:11.409Z,42.33
2018-11-11T17:45:40.226Z,33.00
2018-11-11T17:48:08.991Z,38.13
2018-11-11T17:50:37.881Z,39.27
2018-11-11T17:53:07.626Z,35.77
2018-11-11T17:55:37.637Z,35.97
2018-11-11T17:58:06.498Z,36.27
2018-11-11T18:00:35.769Z,35.40
2018-11-11T18:03:04.952Z,35.20
2018-11-11T18:05:33.967Z,33.97
2018-11-11T18:08:02.926Z,41.73
2018-11-11T18:10:32.156Z,33.90
2018-11-11T18:13:01.264Z,32.70
2018-11-11T18:15:31.486Z,44.00
2018-11-11T18:18:00.431Z,33.90
2018-11-11T18:20:30.528Z,31.50
2018-11-11T18:23:00.428Z,29.27
2018-11-11T18:25:29.396Z,30.50
2018-11-11T18:27:58.815Z,35.93
2018-11-11T18:30:29.579Z,28.17
2018-11-11T18:32:58.480Z,27.37
2018-11-11T18:35:27.585Z,29.80
2018-11-11T18:37:56.603Z,30.30
2018-11-11T18:40:27.975Z,27.50
2018-11-11T18:42:57.117Z,27.27
2018-11-11T18:45:27.320Z,31.63
2018-11-11T18:47:56.251Z,22.60
2018-11-11T18:50:30.532Z,29.80
2018-11-11T18:52:59.426Z,26.07
2018-11-11T18:55:28.542Z,24.70
2018-11-11T18:57:57.544Z,25.47
2018-11-11T19:00:28.646Z,26.43
2018-11-11T19:02:58.080Z,26.40
2018-11-11T19:05:27.345Z,31.63
2018-11-11T19:07:57.091Z,29.77
2018-11-11T19:10:33.242Z,29.20
2018-11-11T19:13:03.688Z,30.60
2018-11-11T19:15:32.545Z,29.00
2018-11-11T19:18:01.602Z,27.17
2018-11-11T19:20:30.858Z,30.67
2018-11-11T19:22:59.642Z,30.43
2018-11-11T19:25:29.695Z,28.93
2018-11-11T19:27:59.854Z,27.63
2018-11-11T19:30:29.551Z,23.80
2018-11-11T19:32:58.501Z,24.90
2018-11-11T19:35:27.603Z,22.30
2018-11-11T19:37:57.528Z,23.90
2018-11-11T19:40:27.696Z,29.57
2018-11-11T19:42:57.677Z,25.80
2018-11-11T19:45:28.341Z,24.17
2018-11-11T19:47:58.328Z,24.47
2018-11-11T19:50:29.040Z,28.77
2018-11-11T19:52:58.794Z,30.67
2018-11-11T19:55:27.983Z,53.17
2018-11-11T19:57:57.388Z,44.70
2018-11-11T20:00:28.566Z,35.03
2018-11-11T20:02:58.285Z,43.23
2018-11-11T20:05:27.279Z,33.70
2018-11-11T20:07:57.633Z,29.80
2018-11-11T20:10:27.243Z,27.17
2018-11-11T20:12:56.149Z,21.97
2018-11-11T20:15:26.926Z,26.50
2018-11-11T20:17:55.849Z,23.73
2018-11-11T20:20:26.174Z,31.00
2018-11-11T20:22:55.212Z,28.27
2018-11-11T20:25:24.115Z,30.37
2018-11-11T20:27:53.081Z,29.63
2018-11-11T20:30:29.620Z,28.50
2018-11-11T20:32:58.615Z,22.70
2018-11-11T20:35:28.923Z,23.53
2018-11-11T20:37:57.932Z,27.60
2018-11-11T20:40:27.819Z,25.83
2018-11-11T20:42:57.382Z,22.70
2018-11-11T20:45:29.523Z,30.87
2018-11-11T20:47:58.678Z,23.60
2018-11-11T20:50:28.681Z,22.83
2018-11-11T20:52:59.211Z,22.13
2018-11-11T20:55:28.331Z,26.30
2018-11-11T20:57:57.459Z,23.10
2018-11-11T21:00:28.999Z,24.40
2018-11-11T21:02:58.472Z,24.23
2018-11-11T21:05:28.338Z,25.40
2018-11-11T21:07:58.186Z,27.07
2018-11-11T21:10:28.404Z,24.77
2018-11-11T21:12:58.840Z,24.00
2018-11-11T21:15:34.559Z,28.47
2018-11-11T21:18:04.903Z,25.77
2018-11-11T21:20:35.020Z,24.07
2018-11-11T21:23:04.978Z,23.20
2018-11-11T21:25:35.340Z,24.87
2018-11-11T21:28:04.646Z,26.10
2018-11-11T21:30:34.684Z,24.83
2018-11-11T21:33:05.259Z,25.67
2018-11-11T21:35:34.747Z,28.53
2018-11-11T21:38:03.726Z,28.80
2018-11-11T21:40:33.113Z,31.87
2018-11-11T21:43:02.141Z,27.90
2018-11-11T21:45:32.217Z,28.63
2018-11-11T21:48:02.098Z,28.67
2018-11-11T21:50:31.816Z,32.07
2018-11-11T21:53:37.229Z,28.40
2018-11-11T21:56:07.312Z,26.87
2018-11-11T21:58:37.413Z,28.00
2018-11-11T22:01:07.205Z,29.40
2018-11-11T22:03:37.751Z,32.57
2018-11-11T22:06:07.037Z,27.93
2018-11-11T22:08:36.209Z,26.00
2018-11-11T22:11:05.130Z,27.97
2018-11-11T22:13:34.169Z,27.70
2018-11-11T22:16:03.851Z,31.97
2018-11-11T22:18:32.698Z,29.47
2018-11-11T22:21:01.696Z,29.97
2018-11-11T22:23:30.890Z,30.90
2018-11-11T22:26:00.048Z,30.60
2018-11-11T22:28:28.889Z,34.60
2018-11-11T22:30:58.819Z,28.40
2018-11-11T22:33:27.789Z,26.03
2018-11-11T22:35:56.696Z,30.20
2018-11-11T22:38:26.344Z,36.10
2018-11-11T22:40:55.178Z,38.23
2018-11-11T22:43:23.962Z,33.10
2018-11-11T22:45:52.867Z,32.47
2018-11-11T22:48:21.841Z,31.33
2018-11-11T22:50:50.792Z,29.13
2018-11-11T22:53:20.019Z,29.20
2018-11-11T22:55:49.074Z,29.63
2018-11-11T22:58:18.006Z,29.07
2018-11-11T23:00:51.960Z,34.33
2018-11-11T23:03:20.866Z,27.47
2018-11-11T23:05:49.728Z,29.03
2018-11-11T23:08:18.850Z,29.97
2018-11-11T23:10:47.589Z,32.30
2018-11-11T23:13:16.438Z,31.93
2018-11-11T23:15:45.505Z,31.20
2018-11-11T23:18:14.335Z,62.90
2018-11-11T23:20:43.130Z,39.47
2018-11-11T23:23:12.424Z,38.30
2018-11-11T23:25:41.278Z,34.77
2018-11-11T23:28:10.160Z,31.57
2018-11-11T23:30:38.960Z,31.00
2018-11-11T23:33:07.762Z,30.73
2018-11-11T23:35:36.579Z,28.07
2018-11-11T23:38:05.604Z,26.20
2018-11-11T23:40:34.423Z,25.90
2018-11-11T23:43:03.566Z,31.10
2018-11-11T23:45:32.340Z,31.40
2018-11-11T23:48:01.268Z,28.97
2018-11-11T23:50:30.418Z,29.40
2018-11-11T23:52:59.253Z,31.13
2018-11-11T23:55:28.108Z,26.93
2018-11-11T23:57:56.929Z,31.13
